Time,TemperatureF,DewpointF,PressureIn,WindDirection,WindDirectionDegrees,WindSpeedMPH,WindSpeedGustMPH,Humidity,HourlyPrecipIn,Conditions,Clouds,dailyrainin,SoftwareType,DateUTC
2013-07-15 00:01:00,73.2,73.2,30.22,NE,35,0.0,0.0,100,0.00,,,0.00,WeatherCatV1.15B25,2013-07-15 04:01:00,
2013-07-15 00:06:00,73.0,73.0,30.21,NE,35,0.0,0.0,100,0.00,,,0.00,WeatherCatV1.15B25,2013-07-15 04:06:00,
2013-07-15 00:11:00,73.0,73.0,30.21,NE,35,0.0,0.0,100,0.00,,,0.00,WeatherCatV1.15B25,2013-07-15 04:11:00,
2013-07-15 00:16:00,72.9,72.9,30.21,NE,35,0.0,0.0,100,0.00,,,0.00,WeatherCatV1.15B25,2013-07-15 04:16:00,
2013-07-15 00:21:00,72.7,72.7,30.22,NE,35,0.0,0.0,100,0.00,,,0.00,WeatherCatV1.15B25,2013-07-15 04:21:00,
2013-07-15 00:26:00,72.7,72.7,30.21,NE,35,0.0,0.0,100,0.00,,,0.00,WeatherCatV1.15B25,2013-07-15 04:26:00,
2013-07-15 00:31:00,72.5,72.5,30.21,NE,35,0.0,0.0,100,0.00,,,0.00,WeatherCatV1.15B25,2013-07-15 04:31:00,
2013-07-15 00:36:00,72.4,72.4,30.21,NE,35,0.0,0.0,100,0.00,,,0.00,WeatherCatV1.15B25,2013-07-15 04:36:00,
2013-07-15 00:41:00,72.4,72.4,30.21,NE,35,0.0,0.0,100,0.00,,,0.00,WeatherCatV1.15B25,2013-07-15 04:41:00,
2013-07-15 00:46:00,72.2,72.2,30.21,NE,35,0.0,0.0,100,0.00,,,0.00,WeatherCatV1.15B25,2013-07-15 04:46:00,
2013-07-15 00:51:00,72.0,72.0,30.20,NE,35,0.0,0.0,100,0.00,,,0.00,WeatherCatV1.15B25,2013-07-15 04:51:00,
2013-07-15 00:56:00,71.8,71.8,30.20,NE,35,0.0,0.0,100,0.00,,,0.00,WeatherCatV1.15B25,2013-07-15 04:56:00,
2013-07-15 01:01:00,71.8,71.8,30.20,NE,35,0.0,0.0,100,0.00,,,0.00,WeatherCatV1.15B25,2013-07-15 05:01:00,
2013-07-15 01:06:00,71.8,71.8,30.20,NE,35,0.0,0.0,100,0.00,,,0.00,WeatherCatV1.15B25,2013-07-15 05:06:00,
2013-07-15 01:11:00,71.7,71.7,30.21,NE,35,0.0,0.0,100,0.00,,,0.00,WeatherCatV1.15B25,2013-07-15 05:11:00,
2013-07-15 01:16:00,71.7,71.7,30.20,NE,35,0.0,0.0,100,0.00,,,0.00,WeatherCatV1.15B25,2013-07-15 05:16:00,
2013-07-15 01:21:00,71.5,71.5,30.21,NE,35,0.0,0.0,100,0.00,,,0.00,WeatherCatV1.15B25,2013-07-15 05:21:00,
2013-07-15 01:26:00,71.4,71.4,30.21,NE,35,0.0,0.0,100,0.00,,,0.00,WeatherCatV1.15B25,2013-07-15 05:26:00,
2013-07-15 01:31:00,71.3,71.3,30.21,NE,35,0.0,0.0,100,0.00,,,0.00,WeatherCatV1.15B25,2013-07-15 05:31:00,
2013-07-15 01:36:00,71.3,71.3,30.20,NE,35,0.0,0.0,100,0.00,,,0.00,WeatherCatV1.15B25,2013-07-15 05:36:00,
2013-07-15 01:41:00,71.3,71.3,30.21,NE,35,0.0,0.0,100,0.00,,,0.00,WeatherCatV1.15B25,2013-07-15 05:41:00,
2013-07-15 01:46:00,71.3,71.3,30.20,NE,35,0.0,0.0,100,0.00,,,0.00,WeatherCatV1.15B25,2013-07-15 05:46:00,
2013-07-15 01:51:00,71.3,71.3,30.20,NE,35,0.0,0.0,100,0.00,,,0.00,WeatherCatV1.15B25,2013-07-15 05:51:00,
2013-07-15 01:56:00,71.1,71.1,30.21,NE,35,0.0,0.0,100,0.00,,,0.00,WeatherCatV1.15B25,2013-07-15 05:56:00,
2013-07-15 02:01:00,71.3,71.3,30.21,NE,35,0.0,0.0,100,0.00,,,0.00,WeatherCatV1.15B25,2013-07-15 06:01:00,
2013-07-15 02:06:00,71.3,71.3,30.20,NE,35,0.0,0.0,100,0.00,,,0.00,WeatherCatV1.15B25,2013-07-15 06:06:00,
2013-07-15 02:10:00,71.4,71.4,30.19,NE,35,0.0,0.0,100,0.00,,,0.00,WeatherCatV1.15B25,2013-07-15 06:10:00,
2013-07-15 02:15:00,71.1,71.1,30.19,NE,35,0.0,0.0,100,0.00,,,0.00,WeatherCatV1.15B25,2013-07-15 06:15:00,
2013-07-15 02:20:00,71.0,71.0,30.20,NE,35,0.0,0.0,100,0.00,,,0.00,WeatherCatV1.15B25,2013-07-15 06:20:00,
2013-07-15 02:25:00,71.0,71.0,30.20,NE,35,0.0,0.0,100,0.00,,,0.00,WeatherCatV1.15B25,2013-07-15 06:25:00,
2013-07-15 02:30:00,71.0,71.0,30.20,NE,35,0.0,0.0,100,0.00,,,0.00,WeatherCatV1.15B25,2013-07-15 06:30:00,
2013-07-15 02:35:00,70.9,70.9,30.20,NE,35,0.0,0.0,100,0.00,,,0.00,WeatherCatV1.15B25,2013-07-15 06:35:00,
2013-07-15 02:40:00,70.8,70.8,30.20,NE,35,0.0,0.0,100,0.00,,,0.00,WeatherCatV1.15B25,2013-07-15 06:40:00,
2013-07-15 02:45:00,70.7,70.7,30.19,NE,35,0.0,0.0,100,0.00,,,0.00,WeatherCatV1.15B25,2013-07-15 06:45:00,
2013-07-15 02:50:00,70.6,70.6,30.20,NE,35,0.0,0.0,100,0.00,,,0.00,WeatherCatV1.15B25,2013-07-15 06:50:00,
2013-07-15 02:55:00,70.5,70.5,30.19,NE,35,0.0,0.0,100,0.00,,,0.00,WeatherCatV1.15B25,2013-07-15 06:55:00,
2013-07-15 03:00:00,70.5,70.5,30.20,NE,35,0.0,0.0,100,0.00,,,0.00,WeatherCatV1.15B25,2013-07-15 07:00:00,
2013-07-15 03:05:00,70.5,70.5,30.19,NE,35,0.0,0.0,100,0.00,,,0.00,WeatherCatV1.15B25,2013-07-15 07:05:00,
2013-07-15 03:10:00,70.3,70.3,30.19,NE,35,0.0,0.0,100,0.00,,,0.00,WeatherCatV1.15B25,2013-07-15 07:10:00,
2013-07-15 03:15:00,70.3,70.3,30.19,NE,35,0.0,0.0,100,0.00,,,0.00,WeatherCatV1.15B25,2013-07-15 07:15:00,
2013-07-15 03:20:00,70.3,70.3,30.19,NE,35,0.0,0.0,100,0.00,,,0.00,WeatherCatV1.15B25,2013-07-15 07:20:00,
2013-07-15 03:25:00,70.2,70.2,30.19,NE,35,0.0,0.0,100,0.00,,,0.00,WeatherCatV1.15B25,2013-07-15 07:25:00,
2013-07-15 03:30:00,70.2,70.2,30.20,NE,35,0.0,0.0,100,0.00,,,0.00,WeatherCatV1.15B25,2013-07-15 07:30:00,
2013-07-15 03:35:00,70.0,70.0,30.20,NE,35,0.0,0.0,100,0.00,,,0.00,WeatherCatV1.15B25,2013-07-15 07:35:00,
2013-07-15 03:40:00,69.8,69.8,30.19,NE,35,0.0,0.0,100,0.00,,,0.00,WeatherCatV1.15B25,2013-07-15 07:40:00,
2013-07-15 03:45:00,69.8,69.8,30.19,NE,35,0.0,0.0,100,0.00,,,0.00,WeatherCatV1.15B25,2013-07-15 07:45:00,
2013-07-15 03:50:00,69.8,69.8,30.20,NE,35,0.0,0.0,100,0.00,,,0.00,WeatherCatV1.15B25,2013-07-15 07:50:00,
2013-07-15 03:55:00,69.6,69.6,30.20,NE,35,0.0,0.0,100,0.00,,,0.00,WeatherCatV1.15B25,2013-07-15 07:55:00,
2013-07-15 04:00:00,69.6,69.6,30.19,NE,35,0.0,0.0,100,0.00,,,0.00,WeatherCatV1.15B25,2013-07-15 08:00:00,
2013-07-15 04:05:00,69.5,69.5,30.20,NE,35,0.0,0.0,100,0.00,,,0.00,WeatherCatV1.15B25,2013-07-15 08:05:00,
2013-07-15 04:10:00,69.5,69.5,30.19,NE,35,0.0,0.0,100,0.00,,,0.00,WeatherCatV1.15B25,2013-07-15 08:10:00,
2013-07-15 04:15:00,69.3,69.3,30.21,NE,35,0.0,0.0,100,0.00,,,0.00,WeatherCatV1.15B25,2013-07-15 08:15:00,
2013-07-15 04:20:00,69.3,69.3,30.20,NE,35,0.0,0.0,100,0.00,,,0.00,WeatherCatV1.15B25,2013-07-15 08:20:00,
2013-07-15 04:25:00,69.2,69.2,30.20,NE,35,0.0,0.0,100,0.00,,,0.00,WeatherCatV1.15B25,2013-07-15 08:25:00,
2013-07-15 04:30:00,69.0,69.0,30.20,NE,35,0.0,0.0,100,0.00,,,0.00,WeatherCatV1.15B25,2013-07-15 08:30:00,
2013-07-15 04:35:00,68.8,68.8,30.19,NE,35,0.0,0.0,100,0.00,,,0.00,WeatherCatV1.15B25,2013-07-15 08:35:00,
2013-07-15 04:40:00,68.8,68.8,30.20,NE,35,0.0,0.0,100,0.00,,,0.00,WeatherCatV1.15B25,2013-07-15 08:40:00,
2013-07-15 04:45:00,68.9,68.9,30.20,NE,35,0.0,0.0,100,0.00,,,0.00,WeatherCatV1.15B25,2013-07-15 08:45:00,
2013-07-15 04:50:00,68.7,68.7,30.20,NE,35,0.0,0.0,100,0.00,,,0.00,WeatherCatV1.15B25,2013-07-15 08:50:00,
2013-07-15 04:55:00,68.7,68.7,30.20,NE,35,0.0,0.0,100,0.00,,,0.00,WeatherCatV1.15B25,2013-07-15 08:55:00,
2013-07-15 05:00:00,68.5,68.5,30.20,NE,35,0.0,0.0,100,0.00,,,0.00,WeatherCatV1.15B25,2013-07-15 09:00:00,
2013-07-15 05:05:00,68.5,68.5,30.20,NE,35,0.0,0.0,100,0.00,,,0.00,WeatherCatV1.15B25,2013-07-15 09:05:00,
2013-07-15 05:10:00,68.5,68.5,30.20,NE,35,0.0,0.0,100,0.00,,,0.00,WeatherCatV1.15B25,2013-07-15 09:10:00,
2013-07-15 05:15:00,68.3,68.3,30.20,NE,35,0.0,0.0,100,0.00,,,0.00,WeatherCatV1.15B25,2013-07-15 09:15:00,
2013-07-15 05:20:00,68.3,68.3,30.20,NE,35,0.0,0.0,100,0.00,,,0.00,WeatherCatV1.15B25,2013-07-15 09:20:00,
2013-07-15 05:25:00,68.3,68.3,30.20,NE,35,0.0,0.0,100,0.00,,,0.00,WeatherCatV1.15B25,2013-07-15 09:25:00,
2013-07-15 05:30:00,68.4,68.4,30.20,NE,35,0.0,0.0,100,0.00,,,0.00,WeatherCatV1.15B25,2013-07-15 09:30:00,
2013-07-15 05:35:00,68.2,68.2,30.20,NE,35,0.0,0.0,100,0.00,,,0.00,WeatherCatV1.15B25,2013-07-15 09:35:00,
2013-07-15 05:40:00,68.2,68.2,30.20,NE,35,0.0,0.0,100,0.00,,,0.00,WeatherCatV1.15B25,2013-07-15 09:40:00,
2013-07-15 05:45:00,68.2,68.2,30.20,NE,35,0.0,0.0,100,0.00,,,0.00,WeatherCatV1.15B25,2013-07-15 09:45:00,
2013-07-15 05:50:00,68.2,68.2,30.20,NE,35,0.0,0.0,100,0.00,,,0.00,WeatherCatV1.15B25,2013-07-15 09:50:00,
2013-07-15 05:55:00,68.2,68.2,30.21,NE,35,0.0,0.0,100,0.00,,,0.00,WeatherCatV1.15B25,2013-07-15 09:55:00,
2013-07-15 06:00:00,68.0,68.0,30.21,NE,35,0.0,0.0,100,0.00,,,0.00,WeatherCatV1.15B25,2013-07-15 10:00:00,
2013-07-15 06:05:00,68.0,68.0,30.21,NE,35,0.0,0.0,100,0.00,,,0.00,WeatherCatV1.15B25,2013-07-15 10:05:00,
2013-07-15 06:10:00,68.2,68.2,30.20,NE,35,0.0,0.0,100,0.00,,,0.00,WeatherCatV1.15B25,2013-07-15 10:10:00,
2013-07-15 06:15:00,68.3,68.3,30.21,NE,35,0.0,0.0,100,0.00,,,0.00,WeatherCatV1.15B25,2013-07-15 10:15:00,
2013-07-15 06:20:00,68.5,68.5,30.21,NE,35,0.0,0.0,100,0.00,,,0.00,WeatherCatV1.15B25,2013-07-15 10:20:00,
2013-07-15 06:25:00,69.0,69.0,30.21,NE,35,0.0,0.0,100,0.00,,,0.00,WeatherCatV1.15B25,2013-07-15 10:25:00,
2013-07-15 06:30:00,69.4,69.4,30.21,NE,35,0.0,0.0,100,0.00,,,0.00,WeatherCatV1.15B25,2013-07-15 10:30:00,
2013-07-15 06:35:00,69.7,69.7,30.21,NE,35,0.0,0.0,100,0.00,,,0.00,WeatherCatV1.15B25,2013-07-15 10:35:00,
2013-07-15 06:40:00,70.0,70.0,30.20,NE,35,0.0,0.0,100,0.00,,,0.00,WeatherCatV1.15B25,2013-07-15 10:40:00,
2013-07-15 06:45:00,70.2,70.2,30.20,NE,35,0.0,0.0,100,0.00,,,0.00,WeatherCatV1.15B25,2013-07-15 10:45:00,
2013-07-15 06:50:00,70.5,70.5,30.20,NE,35,0.0,0.0,100,0.00,,,0.00,WeatherCatV1.15B25,2013-07-15 10:50:00,
2013-07-15 06:55:00,70.6,70.6,30.21,NE,35,0.0,0.0,100,0.00,,,0.00,WeatherCatV1.15B25,2013-07-15 10:55:00,
2013-07-15 07:00:00,70.8,70.8,30.21,NE,35,0.0,0.0,100,0.00,,,0.00,WeatherCatV1.15B25,2013-07-15 11:00:00,
2013-07-15 07:05:00,71.5,71.5,30.21,NE,35,0.0,0.0,100,0.00,,,0.00,WeatherCatV1.15B25,2013-07-15 11:05:00,
2013-07-15 07:10:00,72.2,72.2,30.21,NE,35,0.0,0.0,100,0.00,,,0.00,WeatherCatV1.15B25,2013-07-15 11:10:00,
2013-07-15 07:15:00,72.9,72.9,30.21,NE,35,0.0,0.0,100,0.00,,,0.00,WeatherCatV1.15B25,2013-07-15 11:15:00,
2013-07-15 07:20:00,73.5,73.5,30.21,NE,35,0.0,0.0,100,0.00,,,0.00,WeatherCatV1.15B25,2013-07-15 11:20:00,
2013-07-15 07:25:00,74.5,74.5,30.20,NE,36,0.0,0.0,100,0.00,,,0.00,WeatherCatV1.15B25,2013-07-15 11:25:00,
2013-07-15 07:30:00,75.1,75.1,30.20,NE,36,0.0,0.0,100,0.00,,,0.00,WeatherCatV1.15B25,2013-07-15 11:30:00,
2013-07-15 07:35:00,75.8,75.5,30.21,NE,35,0.0,0.0,99,0.00,,,0.00,WeatherCatV1.15B25,2013-07-15 11:35:00,
2013-07-15 07:40:00,76.7,74.8,30.21,NE,35,0.0,0.0,94,0.00,,,0.00,WeatherCatV1.15B25,2013-07-15 11:40:00,
2013-07-15 07:45:00,77.7,75.2,30.21,NE,35,0.0,0.0,92,0.00,,,0.00,WeatherCatV1.15B25,2013-07-15 11:45:00,
2013-07-15 07:50:00,79.0,75.5,30.21,NE,38,0.0,0.0,89,0.00,,,0.00,WeatherCatV1.15B25,2013-07-15 11:50:00,
2013-07-15 07:55:00,80.1,75.9,30.20,NE,36,0.0,0.0,87,0.00,,,0.00,WeatherCatV1.15B25,2013-07-15 11:55:00,
2013-07-15 08:00:00,80.6,75.7,30.21,NE,35,0.0,0.0,85,0.00,,,0.00,WeatherCatV1.15B25,2013-07-15 12:00:00,
2013-07-15 08:05:00,80.9,75.9,30.21,NE,35,0.0,0.0,85,0.00,,,0.00,WeatherCatV1.15B25,2013-07-15 12:05:00,
2013-07-15 08:10:00,80.9,75.6,30.21,NE,35,0.0,0.0,84,0.00,,,0.00,WeatherCatV1.15B25,2013-07-15 12:10:00,
2013-07-15 08:15:00,81.3,75.6,30.21,NE,35,0.0,0.0,83,0.00,,,0.00,WeatherCatV1.15B25,2013-07-15 12:15:00,
2013-07-15 08:16:00,81.3,75.6,30.21,NE,35,0.0,0.0,83,0.00,,,0.00,WeatherCatV1.15B25,2013-07-15 12:16:00,
2013-07-15 08:21:00,81.2,75.2,30.21,NE,35,0.0,0.0,82,0.00,,,0.00,WeatherCatV1.15B25,2013-07-15 12:21:00,
2013-07-15 08:26:00,81.0,75.0,30.21,NE,35,0.0,0.0,82,0.00,,,0.00,WeatherCatV1.15B25,2013-07-15 12:26:00,
2013-07-15 08:31:00,81.6,75.9,30.21,NE,35,0.0,0.0,83,0.00,,,0.00,WeatherCatV1.15B25,2013-07-15 12:31:00,
2013-07-15 08:36:00,82.2,75.8,30.20,NE,35,0.0,0.0,81,0.00,,,0.00,WeatherCatV1.15B25,2013-07-15 12:36:00,
2013-07-15 08:41:00,82.4,75.6,30.20,NE,35,0.0,0.0,80,0.00,,,0.00,WeatherCatV1.15B25,2013-07-15 12:41:00,
2013-07-15 08:46:00,82.6,75.0,30.20,NE,35,0.0,0.0,78,0.00,,,0.00,WeatherCatV1.15B25,2013-07-15 12:46:00,
2013-07-15 08:51:00,82.6,75.4,30.21,NE,35,0.0,0.0,79,0.00,,,0.00,WeatherCatV1.15B25,2013-07-15 12:51:00,
2013-07-15 08:56:00,82.4,74.8,30.21,WSW,246,0.0,0.0,78,0.00,,,0.00,WeatherCatV1.15B25,2013-07-15 12:56:00,
2013-07-15 09:01:00,82.6,75.4,30.20,WSW,249,0.0,0.0,79,0.00,,,0.00,WeatherCatV1.15B25,2013-07-15 13:01:00,
2013-07-15 09:02:00,82.6,75.0,30.20,WSW,249,0.0,0.0,78,0.00,,,0.00,WeatherCatV1.15B25,2013-07-15 13:02:00,
2013-07-15 09:07:00,82.2,74.6,30.21,NNW,330,0.0,0.0,78,0.00,,,0.00,WeatherCatV1.15B25,2013-07-15 13:07:00,
2013-07-15 09:12:00,82.2,75.4,30.20,NNW,330,0.0,0.0,80,0.00,,,0.00,WeatherCatV1.15B25,2013-07-15 13:12:00,
2013-07-15 09:17:00,82.2,75.4,30.20,NNW,330,0.0,0.0,80,0.00,,,0.00,WeatherCatV1.15B25,2013-07-15 13:17:00,
2013-07-15 09:22:00,82.0,74.8,30.20,NNW,330,0.0,0.0,79,0.00,,,0.00,WeatherCatV1.15B25,2013-07-15 13:22:00,
2013-07-15 09:27:00,82.0,74.8,30.20,NNW,337,0.0,0.0,79,0.00,,,0.00,WeatherCatV1.15B25,2013-07-15 13:27:00,
2013-07-15 09:32:00,82.0,74.4,30.20,NNW,339,0.0,0.0,78,0.00,,,0.00,WeatherCatV1.15B25,2013-07-15 13:32:00,
2013-07-15 09:37:00,82.2,75.4,30.19,NNW,339,0.0,0.0,80,0.00,,,0.00,WeatherCatV1.15B25,2013-07-15 13:37:00,
2013-07-15 09:42:00,82.6,75.8,30.19,NNW,340,0.0,0.0,80,0.00,,,0.00,WeatherCatV1.15B25,2013-07-15 13:42:00,
2013-07-15 09:47:00,83.3,75.7,30.19,NNW,340,0.0,0.0,78,0.00,,,0.00,WeatherCatV1.15B25,2013-07-15 13:47:00,
2013-07-15 09:52:00,83.7,75.7,30.20,NNW,340,0.0,0.0,77,0.00,,,0.00,WeatherCatV1.15B25,2013-07-15 13:52:00,
2013-07-15 09:57:00,83.6,75.6,30.19,North,350,0.0,0.0,77,0.00,,,0.00,WeatherCatV1.15B25,2013-07-15 13:57:00,
2013-07-15 10:02:00,83.8,76.2,30.20,North,350,0.0,0.0,78,0.00,,,0.00,WeatherCatV1.15B25,2013-07-15 14:02:00,
2013-07-15 10:07:00,84.3,76.3,30.19,North,358,0.0,0.0,77,0.00,,,0.00,WeatherCatV1.15B25,2013-07-15 14:07:00,
2013-07-15 10:11:00,84.8,76.4,30.20,North,0,0.0,0.0,76,0.00,,,0.00,WeatherCatV1.15B25,2013-07-15 14:11:00,
2013-07-15 10:16:00,84.9,75.7,30.20,NNE,12,0.0,0.0,74,0.00,,,0.00,WeatherCatV1.15B25,2013-07-15 14:16:00,
2013-07-15 10:21:00,84.3,75.1,30.19,North,6,0.0,0.0,74,0.00,,,0.00,WeatherCatV1.15B25,2013-07-15 14:21:00,
2013-07-15 10:26:00,85.1,76.3,30.19,North,1,0.0,0.0,75,0.00,,,0.00,WeatherCatV1.15B25,2013-07-15 14:26:00,
2013-07-15 10:31:00,84.9,75.7,30.19,NW,310,0.0,0.0,74,0.00,,,0.00,WeatherCatV1.15B25,2013-07-15 14:31:00,
2013-07-15 10:36:00,85.3,76.0,30.19,NNW,331,0.0,0.0,74,0.00,,,0.00,WeatherCatV1.15B25,2013-07-15 14:36:00,
2013-07-15 10:41:00,85.1,75.0,30.19,NE,44,0.0,0.0,72,0.00,,,0.00,WeatherCatV1.15B25,2013-07-15 14:41:00,
2013-07-15 10:46:00,85.7,76.0,30.19,NNE,31,0.0,0.0,73,0.00,,,0.00,WeatherCatV1.15B25,2013-07-15 14:46:00,
2013-07-15 10:51:00,86.4,76.3,30.19,NE,40,0.0,0.0,72,0.00,,,0.00,WeatherCatV1.15B25,2013-07-15 14:51:00,
2013-07-15 10:56:00,85.9,75.4,30.19,North,10,0.0,0.0,71,0.00,,,0.00,WeatherCatV1.15B25,2013-07-15 14:56:00,
2013-07-15 11:01:00,86.1,76.0,30.19,North,10,0.0,0.0,72,0.00,,,0.00,WeatherCatV1.15B25,2013-07-15 15:01:00,
2013-07-15 11:06:00,86.8,75.4,30.19,North,0,0.0,0.0,69,0.00,,,0.00,WeatherCatV1.15B25,2013-07-15 15:06:00,
2013-07-15 11:11:00,87.0,75.1,30.19,North,0,0.0,0.0,68,0.00,,,0.00,WeatherCatV1.15B25,2013-07-15 15:11:00,
2013-07-15 11:16:00,87.2,75.8,30.18,North,0,0.0,0.0,69,0.00,,,0.00,WeatherCatV1.15B25,2013-07-15 15:16:00,
2013-07-15 11:21:00,88.2,76.7,30.19,North,0,0.0,0.0,69,0.00,,,0.00,WeatherCatV1.15B25,2013-07-15 15:21:00,
2013-07-15 11:26:00,88.2,74.9,30.18,ENE,60,0.0,0.0,65,0.00,,,0.00,WeatherCatV1.15B25,2013-07-15 15:26:00,
2013-07-15 11:31:00,88.0,75.2,30.18,NE,43,0.0,0.0,66,0.00,,,0.00,WeatherCatV1.15B25,2013-07-15 15:31:00,
2013-07-15 11:36:00,88.0,75.2,30.18,NNE,14,0.0,0.0,66,0.00,,,0.00,WeatherCatV1.15B25,2013-07-15 15:36:00,
2013-07-15 11:41:00,88.6,75.8,30.17,NNE,32,0.0,0.0,66,0.00,,,0.00,WeatherCatV1.15B25,2013-07-15 15:41:00,
2013-07-15 11:46:00,88.6,75.8,30.18,NE,34,0.0,0.0,66,0.00,,,0.00,WeatherCatV1.15B25,2013-07-15 15:46:00,
2013-07-15 11:51:00,88.4,75.1,30.18,North,8,0.0,0.0,65,0.00,,,0.00,WeatherCatV1.15B25,2013-07-15 15:51:00,
2013-07-15 11:52:00,88.2,74.9,30.18,North,8,0.0,0.0,65,0.00,,,0.00,WeatherCatV1.15B25,2013-07-15 15:52:00,
2013-07-15 11:57:00,88.0,75.2,30.17,North,0,0.0,0.0,66,0.00,,,0.00,WeatherCatV1.15B25,2013-07-15 15:57:00,
2013-07-15 12:02:00,88.0,75.2,30.17,North,1,0.0,0.0,66,0.00,,,0.00,WeatherCatV1.15B25,2013-07-15 16:02:00,
2013-07-15 12:08:00,88.2,75.4,30.17,NNW,348,0.0,0.0,66,0.00,,,0.00,WeatherCatV1.15B25,2013-07-15 16:08:00,
2013-07-15 12:13:00,88.9,76.0,30.17,NNW,347,0.0,0.0,66,0.00,,,0.00,WeatherCatV1.15B25,2013-07-15 16:13:00,
2013-07-15 12:18:00,88.6,75.8,30.17,NNW,347,0.0,0.0,66,0.00,,,0.00,WeatherCatV1.15B25,2013-07-15 16:18:00,
2013-07-15 12:23:00,87.6,74.8,30.17,North,6,0.0,0.0,66,0.00,,,0.00,WeatherCatV1.15B25,2013-07-15 16:23:00,
2013-07-15 12:28:00,87.4,74.6,30.17,North,2,0.0,0.0,66,0.00,,,0.00,WeatherCatV1.15B25,2013-07-15 16:28:00,
2013-07-15 12:33:00,87.2,74.4,30.17,NNE,15,0.0,0.0,66,0.00,,,0.00,WeatherCatV1.15B25,2013-07-15 16:33:00,
2013-07-15 12:38:00,87.2,74.9,30.16,NNE,31,0.0,0.0,67,0.00,,,0.00,WeatherCatV1.15B25,2013-07-15 16:38:00,
2013-07-15 12:43:00,88.2,75.4,30.17,ENE,59,0.0,0.0,66,0.00,,,0.00,WeatherCatV1.15B25,2013-07-15 16:43:00,
2013-07-15 12:48:00,88.4,74.6,30.17,NNE,19,0.0,0.0,64,0.00,,,0.00,WeatherCatV1.15B25,2013-07-15 16:48:00,
2013-07-15 12:53:00,88.6,75.3,30.16,North,0,0.0,0.0,65,0.00,,,0.00,WeatherCatV1.15B25,2013-07-15 16:53:00,
2013-07-15 12:58:00,89.1,75.8,30.16,East,98,0.0,0.0,65,0.00,,,0.00,WeatherCatV1.15B25,2013-07-15 16:58:00,
2013-07-15 13:03:00,89.2,74.9,30.16,SSE,152,0.0,0.0,63,0.00,,,0.00,WeatherCatV1.15B25,2013-07-15 17:03:00,
2013-07-15 13:08:00,89.0,75.7,30.16,NNE,22,0.0,0.0,65,0.00,,,0.00,WeatherCatV1.15B25,2013-07-15 17:08:00,
2013-07-15 13:13:00,88.8,75.5,30.16,NNE,28,0.0,0.0,65,0.00,,,0.00,WeatherCatV1.15B25,2013-07-15 17:13:00,
2013-07-15 13:18:00,88.4,75.1,30.15,NNE,16,0.0,0.0,65,0.00,,,0.00,WeatherCatV1.15B25,2013-07-15 17:18:00,
2013-07-15 13:23:00,88.6,74.4,30.16,North,355,0.0,0.0,63,0.00,,,0.00,WeatherCatV1.15B25,2013-07-15 17:23:00,
2013-07-15 13:28:00,89.0,75.2,30.16,NE,51,0.0,0.0,64,0.00,,,0.00,WeatherCatV1.15B25,2013-07-15 17:28:00,
2013-07-15 13:33:00,89.0,74.3,30.15,East,91,0.0,0.0,62,0.00,,,0.00,WeatherCatV1.15B25,2013-07-15 17:33:00,
2013-07-15 13:38:00,89.1,74.8,30.16,NNE,31,0.0,0.0,63,0.00,,,0.00,WeatherCatV1.15B25,2013-07-15 17:38:00,
2013-07-15 13:43:00,88.6,74.8,30.15,NW,320,0.0,0.0,64,0.00,,,0.00,WeatherCatV1.15B25,2013-07-15 17:43:00,
2013-07-15 13:48:00,88.6,75.3,30.16,NW,320,0.0,0.0,65,0.00,,,0.00,WeatherCatV1.15B25,2013-07-15 17:48:00,
2013-07-15 13:53:00,88.9,76.0,30.15,North,354,0.0,0.0,66,0.00,,,0.00,WeatherCatV1.15B25,2013-07-15 17:53:00,
2013-07-15 13:57:00,89.0,75.2,30.15,North,353,0.0,0.0,64,0.00,,,0.00,WeatherCatV1.15B25,2013-07-15 17:57:00,
2013-07-15 14:02:00,89.0,74.7,30.15,North,353,0.0,0.0,63,0.00,,,0.00,WeatherCatV1.15B25,2013-07-15 18:02:00,
2013-07-15 14:07:00,89.1,75.3,30.15,North,0,0.0,0.0,64,0.00,,,0.00,WeatherCatV1.15B25,2013-07-15 18:07:00,
2013-07-15 14:12:00,89.0,75.7,30.15,North,354,0.0,0.0,65,0.00,,,0.00,WeatherCatV1.15B25,2013-07-15 18:12:00,
2013-07-15 14:17:00,89.2,75.9,30.15,North,354,0.0,0.0,65,0.00,,,0.00,WeatherCatV1.15B25,2013-07-15 18:17:00,
2013-07-15 14:22:00,89.5,75.7,30.15,North,354,0.0,0.0,64,0.00,,,0.00,WeatherCatV1.15B25,2013-07-15 18:22:00,
2013-07-15 14:27:00,89.3,75.0,30.15,North,2,0.0,0.0,63,0.00,,,0.00,WeatherCatV1.15B25,2013-07-15 18:27:00,
2013-07-15 14:32:00,89.2,73.5,30.15,NE,46,0.0,0.0,60,0.00,,,0.00,WeatherCatV1.15B25,2013-07-15 18:32:00,
2013-07-15 14:37:00,89.7,74.9,30.15,North,0,0.0,0.0,62,0.00,,,0.00,WeatherCatV1.15B25,2013-07-15 18:37:00,
2013-07-15 14:42:00,89.5,74.7,30.15,North,0,0.0,0.0,62,0.00,,,0.00,WeatherCatV1.15B25,2013-07-15 18:42:00,
2013-07-15 14:47:00,89.3,73.6,30.14,NE,46,0.0,0.0,60,0.00,,,0.00,WeatherCatV1.15B25,2013-07-15 18:47:00,
2013-07-15 14:52:00,89.3,74.0,30.15,NNE,14,0.0,0.0,61,0.00,,,0.00,WeatherCatV1.15B25,2013-07-15 18:52:00,
2013-07-15 14:57:00,89.0,72.3,30.14,North,8,0.0,0.0,58,0.00,,,0.00,WeatherCatV1.15B25,2013-07-15 18:57:00,
2013-07-15 15:02:00,88.6,72.9,30.14,North,10,0.0,0.0,60,0.00,,,0.00,WeatherCatV1.15B25,2013-07-15 19:02:00,
2013-07-15 15:07:00,88.4,71.7,30.14,NE,47,0.0,0.0,58,0.00,,,0.00,WeatherCatV1.15B25,2013-07-15 19:07:00,
2013-07-15 15:12:00,88.4,72.7,30.13,NNE,19,0.0,0.0,60,0.00,,,0.00,WeatherCatV1.15B25,2013-07-15 19:12:00,
2013-07-15 15:17:00,88.6,73.4,30.14,NNW,334,0.0,0.0,61,0.00,,,0.00,WeatherCatV1.15B25,2013-07-15 19:17:00,
2013-07-15 15:21:00,88.6,73.9,30.13,NNW,334,0.0,0.0,62,0.00,,,0.00,WeatherCatV1.15B25,2013-07-15 19:21:00,
2013-07-15 15:26:00,88.9,74.2,30.13,NNW,334,0.0,0.0,62,0.00,,,0.00,WeatherCatV1.15B25,2013-07-15 19:26:00,
2013-07-15 15:31:00,88.8,73.6,30.14,NNW,333,0.0,0.0,61,0.00,,,0.00,WeatherCatV1.15B25,2013-07-15 19:31:00,
2013-07-15 15:36:00,89.0,73.3,30.13,NNW,333,0.0,0.0,60,0.00,,,0.00,WeatherCatV1.15B25,2013-07-15 19:36:00,
2013-07-15 15:41:00,89.0,73.8,30.13,NNE,15,0.0,0.0,61,0.00,,,0.00,WeatherCatV1.15B25,2013-07-15 19:41:00,
2013-07-15 15:43:00,89.0,74.3,30.13,NNE,14,0.0,0.0,62,0.00,,,0.00,WeatherCatV1.15B25,2013-07-15 19:43:00,
2013-07-15 15:48:00,89.0,74.7,30.13,NNE,14,0.0,0.0,63,0.00,,,0.00,WeatherCatV1.15B25,2013-07-15 19:48:00,
2013-07-15 15:52:00,88.8,73.6,30.13,NNE,19,0.0,0.0,61,0.00,,,0.00,WeatherCatV1.15B25,2013-07-15 19:52:00,
2013-07-15 15:57:00,88.6,72.9,30.12,NNE,19,0.0,0.0,60,0.00,,,0.00,WeatherCatV1.15B25,2013-07-15 19:57:00,
2013-07-15 16:02:00,88.6,73.4,30.12,NNE,19,0.0,0.0,61,0.00,,,0.00,WeatherCatV1.15B25,2013-07-15 20:02:00,
2013-07-15 16:07:00,88.8,74.1,30.12,NNE,19,0.0,0.0,62,0.00,,,0.00,WeatherCatV1.15B25,2013-07-15 20:07:00,
2013-07-15 16:12:00,88.8,73.1,30.12,NNE,19,0.0,0.0,60,0.00,,,0.00,WeatherCatV1.15B25,2013-07-15 20:12:00,
2013-07-15 16:17:00,88.6,72.9,30.12,NNE,19,0.0,0.0,60,0.00,,,0.00,WeatherCatV1.15B25,2013-07-15 20:17:00,
2013-07-15 16:22:00,88.6,73.4,30.12,NNE,19,0.0,0.0,61,0.00,,,0.00,WeatherCatV1.15B25,2013-07-15 20:22:00,
2013-07-15 16:27:00,88.6,73.4,30.12,NNE,19,0.0,0.0,61,0.00,,,0.00,WeatherCatV1.15B25,2013-07-15 20:27:00,
2013-07-15 16:32:00,88.6,73.9,30.12,NNE,19,0.0,0.0,62,0.00,,,0.00,WeatherCatV1.15B25,2013-07-15 20:32:00,
2013-07-15 16:37:00,88.6,73.4,30.12,NNE,19,0.0,0.0,61,0.00,,,0.00,WeatherCatV1.15B25,2013-07-15 20:37:00,
2013-07-15 16:40:00,88.7,73.5,30.12,NNE,19,0.0,0.0,61,0.00,,,0.00,WeatherCatV1.15B25,2013-07-15 20:40:00,
2013-07-15 16:45:00,88.4,74.6,30.12,NNE,20,0.0,0.0,64,0.00,,,0.00,WeatherCatV1.15B25,2013-07-15 20:45:00,
2013-07-15 16:50:00,88.2,73.5,30.12,NNE,20,0.0,0.0,62,0.00,,,0.00,WeatherCatV1.15B25,2013-07-15 20:50:00,
2013-07-15 16:55:00,88.0,74.3,30.11,NNE,20,0.0,0.0,64,0.00,,,0.00,WeatherCatV1.15B25,2013-07-15 20:55:00,
2013-07-15 17:00:00,87.8,73.6,30.11,NNE,20,0.0,0.0,63,0.00,,,0.00,WeatherCatV1.15B25,2013-07-15 21:00:00,
2013-07-15 17:05:00,87.6,73.9,30.11,NNE,20,0.0,0.0,64,0.00,,,0.00,WeatherCatV1.15B25,2013-07-15 21:05:00,
2013-07-15 17:10:00,87.6,72.9,30.11,NNE,20,0.0,0.0,62,0.00,,,0.00,WeatherCatV1.15B25,2013-07-15 21:10:00,
2013-07-15 17:15:00,87.6,73.9,30.11,NNE,20,0.0,0.0,64,0.00,,,0.00,WeatherCatV1.15B25,2013-07-15 21:15:00,
2013-07-15 17:20:00,87.8,74.5,30.11,NNE,20,0.0,0.0,65,0.00,,,0.00,WeatherCatV1.15B25,2013-07-15 21:20:00,
2013-07-15 17:24:00,87.8,74.1,30.10,NNE,20,0.0,0.0,64,0.00,,,0.00,WeatherCatV1.20B785,2013-07-15 21:24:00,
2013-07-15 17:29:00,88.0,74.7,30.10,NNE,20,0.0,0.0,65,0.00,,,0.00,WeatherCatV1.20B785,2013-07-15 21:29:00,
2013-07-15 17:34:00,88.0,74.7,30.10,NNE,20,0.0,0.0,65,0.00,,,0.00,WeatherCatV1.20B785,2013-07-15 21:34:00,
2013-07-15 17:39:00,88.0,74.7,30.10,NNE,20,0.0,0.0,65,0.00,,,0.00,WeatherCatV1.20B785,2013-07-15 21:39:00,
2013-07-15 17:44:00,88.0,74.7,30.09,NNE,20,0.0,0.0,65,0.00,,,0.00,WeatherCatV1.20B785,2013-07-15 21:44:00,
2013-07-15 17:49:00,88.0,74.7,30.10,NNE,20,0.0,0.0,65,0.00,,,0.00,WeatherCatV1.20B785,2013-07-15 21:49:00,
2013-07-15 17:54:00,88.0,75.2,30.10,NNE,20,0.0,0.0,66,0.00,,,0.00,WeatherCatV1.20B785,2013-07-15 21:54:00,
2013-07-15 17:59:00,88.0,75.6,30.10,NNE,20,0.0,0.0,67,0.00,,,0.00,WeatherCatV1.20B785,2013-07-15 21:59:00,
2013-07-15 18:04:00,87.8,75.4,30.10,NNE,21,0.0,0.0,67,0.00,,,0.00,WeatherCatV1.20B785,2013-07-15 22:04:00,
2013-07-15 18:09:00,87.6,76.1,30.10,NNE,22,0.0,0.0,69,0.00,,,0.00,WeatherCatV1.20B785,2013-07-15 22:09:00,
2013-07-15 18:14:00,87.4,75.9,30.10,ENE,73,0.0,0.0,69,0.00,,,0.00,WeatherCatV1.20B785,2013-07-15 22:14:00,
2013-07-15 18:19:00,87.4,77.7,30.10,East,80,0.0,0.0,73,0.00,,,0.00,WeatherCatV1.20B785,2013-07-15 22:19:00,
2013-07-15 18:24:00,87.2,77.9,30.10,East,80,0.0,0.0,74,0.00,,,0.00,WeatherCatV1.20B785,2013-07-15 22:24:00,
2013-07-15 18:29:00,87.2,77.9,30.11,NNE,21,0.0,0.0,74,0.00,,,0.00,WeatherCatV1.20B785,2013-07-15 22:29:00,
2013-07-15 18:34:00,87.0,78.1,30.10,NNE,21,0.0,0.0,75,0.00,,,0.00,WeatherCatV1.20B785,2013-07-15 22:34:00,
2013-07-15 18:39:00,86.7,78.2,30.11,NNE,20,0.0,0.0,76,0.00,,,0.00,WeatherCatV1.20B785,2013-07-15 22:39:00,
2013-07-15 18:44:00,86.4,77.1,30.10,NNE,20,0.0,0.0,74,0.00,,,0.00,WeatherCatV1.20B785,2013-07-15 22:44:00,
2013-07-15 18:49:00,86.1,77.6,30.10,NNE,20,0.0,0.0,76,0.00,,,0.00,WeatherCatV1.20B785,2013-07-15 22:49:00,
2013-07-15 18:54:00,85.9,77.0,30.10,NNE,20,0.0,0.0,75,0.00,,,0.00,WeatherCatV1.20B785,2013-07-15 22:54:00,
2013-07-15 18:59:00,85.5,75.8,30.10,NNE,20,0.0,0.0,73,0.00,,,0.00,WeatherCatV1.20B785,2013-07-15 22:59:00,
2013-07-15 19:04:00,85.3,74.8,30.10,NNE,20,0.0,0.0,71,0.00,,,0.00,WeatherCatV1.20B785,2013-07-15 23:04:00,
2013-07-15 19:09:00,85.1,74.2,30.11,NNE,20,0.0,0.0,70,0.00,,,0.00,WeatherCatV1.20B785,2013-07-15 23:09:00,
2013-07-15 19:14:00,84.9,74.8,30.10,NNE,20,0.0,0.0,72,0.00,,,0.00,WeatherCatV1.20B785,2013-07-15 23:14:00,
2013-07-15 19:19:00,84.9,75.2,30.10,NNE,20,0.0,0.0,73,0.00,,,0.00,WeatherCatV1.20B785,2013-07-15 23:19:00,
2013-07-15 19:24:00,84.7,75.5,30.10,NNE,20,0.0,0.0,74,0.00,,,0.00,WeatherCatV1.20B785,2013-07-15 23:24:00,
2013-07-15 19:29:00,84.4,75.6,30.11,NNE,20,0.0,0.0,75,0.00,,,0.00,WeatherCatV1.20B785,2013-07-15 23:29:00,
2013-07-15 19:34:00,83.9,74.7,30.11,NNE,20,0.0,0.0,74,0.00,,,0.00,WeatherCatV1.20B785,2013-07-15 23:34:00,
2013-07-15 19:39:00,83.6,74.4,30.11,NNE,20,0.0,0.0,74,0.00,,,0.00,WeatherCatV1.20B785,2013-07-15 23:39:00,
2013-07-15 19:44:00,83.0,74.2,30.10,NNE,20,0.0,0.0,75,0.00,,,0.00,WeatherCatV1.20B785,2013-07-15 23:44:00,
2013-07-15 19:49:00,82.8,74.4,30.11,NNE,20,0.0,0.0,76,0.00,,,0.00,WeatherCatV1.20B785,2013-07-15 23:49:00,
2013-07-15 19:54:00,82.4,74.4,30.11,NNE,20,0.0,0.0,77,0.00,,,0.00,WeatherCatV1.20B785,2013-07-15 23:54:00,
2013-07-15 19:59:00,82.0,74.1,30.11,NNE,20,0.0,0.0,77,0.00,,,0.00,WeatherCatV1.20B785,2013-07-15 23:59:00,
2013-07-15 20:04:00,81.6,74.1,30.11,NNE,20,0.0,0.0,78,0.00,,,0.00,WeatherCatV1.20B785,2013-07-16 00:04:00,
2013-07-15 20:09:00,81.3,74.5,30.11,NNE,20,0.0,0.0,80,0.00,,,0.00,WeatherCatV1.20B785,2013-07-16 00:09:00,
2013-07-15 20:14:00,80.9,74.5,30.10,NNE,20,0.0,0.0,81,0.00,,,0.00,WeatherCatV1.20B785,2013-07-16 00:14:00,
2013-07-15 20:19:00,80.5,74.8,30.11,NNE,20,0.0,0.0,83,0.00,,,0.00,WeatherCatV1.20B785,2013-07-16 00:19:00,
2013-07-15 20:24:00,80.1,74.4,30.11,NNE,20,0.0,0.0,83,0.00,,,0.00,WeatherCatV1.20B785,2013-07-16 00:24:00,
2013-07-15 20:29:00,79.8,74.5,30.11,NNE,20,0.0,0.0,84,0.00,,,0.00,WeatherCatV1.20B785,2013-07-16 00:29:00,
2013-07-15 20:34:00,79.4,74.8,30.11,NNE,21,0.0,0.0,86,0.00,,,0.00,WeatherCatV1.20B785,2013-07-16 00:34:00,
2013-07-15 20:39:00,79.0,74.8,30.11,NNE,21,0.0,0.0,87,0.00,,,0.00,WeatherCatV1.20B785,2013-07-16 00:39:00,
2013-07-15 20:44:00,78.6,74.7,30.12,NNE,21,0.0,0.0,88,0.00,,,0.00,WeatherCatV1.20B785,2013-07-16 00:44:00,
2013-07-15 20:49:00,78.3,74.4,30.12,NNE,21,0.0,0.0,88,0.00,,,0.00,WeatherCatV1.20B785,2013-07-16 00:49:00,
2013-07-15 20:52:00,78.1,74.6,30.11,NNE,20,0.0,0.0,89,0.00,,,0.00,WeatherCatV1.20B785,2013-07-16 00:52:00,
2013-07-15 20:57:00,77.7,74.2,30.12,NNE,20,0.0,0.0,89,0.00,,,0.00,WeatherCatV1.20B785,2013-07-16 00:57:00,
2013-07-15 21:02:00,77.6,74.4,30.12,NNE,20,0.0,0.0,90,0.00,,,0.00,WeatherCatV1.20B785,2013-07-16 01:02:00,
2013-07-15 21:07:00,77.3,74.5,30.12,NNE,20,0.0,0.0,91,0.00,,,0.00,WeatherCatV1.20B785,2013-07-16 01:07:00,
2013-07-15 21:12:00,77.0,74.2,30.13,NNE,20,0.0,0.0,91,0.00,,,0.00,WeatherCatV1.20B785,2013-07-16 01:12:00,
2013-07-15 21:17:00,76.7,74.2,30.12,NNE,20,0.0,0.0,92,0.00,,,0.00,WeatherCatV1.20B785,2013-07-16 01:17:00,
2013-07-15 21:22:00,76.5,74.3,30.13,NNE,20,0.0,0.0,93,0.00,,,0.00,WeatherCatV1.20B785,2013-07-16 01:22:00,
2013-07-15 21:27:00,76.3,74.1,30.13,NNE,20,0.0,0.0,93,0.00,,,0.00,WeatherCatV1.20B785,2013-07-16 01:27:00,
2013-07-15 21:32:00,76.0,74.1,30.13,NNE,20,0.0,0.0,94,0.00,,,0.00,WeatherCatV1.20B785,2013-07-16 01:32:00,
2013-07-15 21:37:00,75.8,73.9,30.13,NNE,20,0.0,0.0,94,0.00,,,0.00,WeatherCatV1.20B785,2013-07-16 01:37:00,
2013-07-15 21:42:00,75.6,73.7,30.13,NNE,20,0.0,0.0,94,0.00,,,0.00,WeatherCatV1.20B785,2013-07-16 01:42:00,
2013-07-15 21:47:00,75.4,73.9,30.13,NNE,20,0.0,0.0,95,0.00,,,0.00,WeatherCatV1.20B785,2013-07-16 01:47:00,
2013-07-15 21:52:00,75.3,73.8,30.13,NNE,20,0.0,0.0,95,0.00,,,0.00,WeatherCatV1.20B785,2013-07-16 01:52:00,
2013-07-15 21:57:00,75.1,73.6,30.13,NNE,20,0.0,0.0,95,0.00,,,0.00,WeatherCatV1.20B785,2013-07-16 01:57:00,
2013-07-15 22:02:00,74.9,73.7,30.13,NNE,20,0.0,0.0,96,0.00,,,0.00,WeatherCatV1.20B785,2013-07-16 02:02:00,
2013-07-15 22:04:00,74.7,73.5,30.13,NNE,20,0.0,0.0,96,0.00,,,0.00,WeatherCatV1.20B785,2013-07-16 02:04:00,
2013-07-15 22:09:00,74.6,73.4,30.13,NNE,20,0.0,0.0,96,0.00,,,0.00,WeatherCatV1.20B785,2013-07-16 02:09:00,
2013-07-15 22:14:00,74.4,73.2,30.13,NNE,20,0.0,0.0,96,0.00,,,0.00,WeatherCatV1.20B785,2013-07-16 02:14:00,
2013-07-15 22:19:00,74.2,73.0,30.13,NNE,20,0.0,0.0,96,0.00,,,0.00,WeatherCatV1.20B785,2013-07-16 02:19:00,
2013-07-15 22:24:00,74.1,72.9,30.13,NNE,20,0.0,0.0,96,0.00,,,0.00,WeatherCatV1.20B785,2013-07-16 02:24:00,
2013-07-15 22:29:00,73.9,73.0,30.14,NNE,20,0.0,0.0,97,0.00,,,0.00,WeatherCatV1.20B785,2013-07-16 02:29:00,
2013-07-15 22:34:00,73.9,73.0,30.14,NNE,20,0.0,0.0,97,0.00,,,0.00,WeatherCatV1.20B785,2013-07-16 02:34:00,
2013-07-15 22:39:00,73.8,73.2,30.13,NNE,20,0.0,0.0,98,0.00,,,0.00,WeatherCatV1.20B785,2013-07-16 02:39:00,
2013-07-15 22:44:00,73.5,72.9,30.14,NNE,20,0.0,0.0,98,0.00,,,0.00,WeatherCatV1.20B785,2013-07-16 02:44:00,
2013-07-15 22:49:00,73.4,72.8,30.13,NNE,20,0.0,0.0,98,0.00,,,0.00,WeatherCatV1.20B785,2013-07-16 02:49:00,
2013-07-15 22:54:00,73.2,72.9,30.14,NNE,20,0.0,0.0,99,0.00,,,0.00,WeatherCatV1.20B785,2013-07-16 02:54:00,
2013-07-15 22:59:00,73.1,72.8,30.13,NNE,20,0.0,0.0,99,0.00,,,0.00,WeatherCatV1.20B785,2013-07-16 02:59:00,
2013-07-15 23:04:00,72.9,72.6,30.14,NNE,20,0.0,0.0,99,0.00,,,0.00,WeatherCatV1.20B785,2013-07-16 03:04:00,
2013-07-15 23:09:00,72.7,72.7,30.14,NNE,20,0.0,0.0,100,0.00,,,0.00,WeatherCatV1.20B785,2013-07-16 03:09:00,
2013-07-15 23:14:00,72.7,72.7,30.14,NNE,20,0.0,0.0,100,0.00,,,0.00,WeatherCatV1.20B785,2013-07-16 03:14:00,
2013-07-15 23:19:00,72.5,72.5,30.14,NNE,20,0.0,0.0,100,0.00,,,0.00,WeatherCatV1.20B785,2013-07-16 03:19:00,
2013-07-15 23:24:00,72.5,72.5,30.14,NNE,20,0.0,0.0,100,0.00,,,0.00,WeatherCatV1.20B785,2013-07-16 03:24:00,
2013-07-15 23:29:00,72.4,72.4,30.14,NNE,20,0.0,0.0,100,0.00,,,0.00,WeatherCatV1.20B785,2013-07-16 03:29:00,
2013-07-15 23:34:00,72.2,72.2,30.15,NNE,20,0.0,0.0,100,0.00,,,0.00,WeatherCatV1.20B785,2013-07-16 03:34:00,
2013-07-15 23:39:00,72.2,72.2,30.14,NNE,20,0.0,0.0,100,0.00,,,0.00,WeatherCatV1.20B785,2013-07-16 03:39:00,
2013-07-15 23:44:00,72.0,72.0,30.14,NNE,20,0.0,0.0,100,0.00,,,0.00,WeatherCatV1.20B785,2013-07-16 03:44:00,
2013-07-15 23:49:00,71.8,71.8,30.14,NNE,20,0.0,0.0,100,0.00,,,0.00,WeatherCatV1.20B785,2013-07-16 03:49:00,
2013-07-15 23:54:00,71.9,71.9,30.14,NNE,20,0.0,0.0,100,0.00,,,0.00,WeatherCatV1.20B785,2013-07-16 03:54:00,
2013-07-15 23:59:00,71.7,71.7,30.14,NNE,20,0.0,0.0,100,0.00,,,0.00,WeatherCatV1.20B785,2013-07-16 03:59:00,